sensor_id;sensor_type;location;lat;lon;timestamp;P1;durP1;ratioP1;P2;durP2;ratioP2
20365;SDS011;10341;49.894;8.822;2023-08-06T00:02:53;4.22;;;3.55;;
20365;SDS011;10341;49.894;8.822;2023-08-06T00:08:12;6.07;;;3.50;;
20365;SDS011;10341;49.894;8.822;2023-08-06T00:13:32;5.55;;;3.72;;
20365;SDS011;10341;49.894;8.822;2023-08-06T00:18:51;4.90;;;3.10;;
20365;SDS011;10341;49.894;8.822;2023-08-06T00:24:10;4.05;;;3.13;;
20365;SDS011;10341;49.894;8.822;2023-08-06T00:29:29;4.55;;;3.50;;
20365;SDS011;10341;49.894;8.822;2023-08-06T00:34:49;3.85;;;2.83;;
20365;SDS011;10341;49.894;8.822;2023-08-06T00:40:08;4.68;;;3.35;;
20365;SDS011;10341;49.894;8.822;2023-08-06T00:45:28;6.55;;;3.85;;
20365;SDS011;10341;49.894;8.822;2023-08-06T00:50:50;4.28;;;3.28;;
20365;SDS011;10341;49.894;8.822;2023-08-06T00:56:09;3.28;;;2.92;;
20365;SDS011;10341;49.894;8.822;2023-08-06T01:06:52;4.18;;;2.97;;
20365;SDS011;10341;49.894;8.822;2023-08-06T01:12:41;4.78;;;2.90;;
20365;SDS011;10341;49.894;8.822;2023-08-06T01:18:09;3.80;;;3.00;;
20365;SDS011;10341;49.894;8.822;2023-08-06T01:23:29;2.88;;;2.58;;
20365;SDS011;10341;49.894;8.822;2023-08-06T01:28:56;4.07;;;3.00;;
20365;SDS011;10341;49.894;8.822;2023-08-06T01:34:21;3.58;;;2.67;;
20365;SDS011;10341;49.894;8.822;2023-08-06T01:39:42;2.50;;;2.30;;
20365;SDS011;10341;49.894;8.822;2023-08-06T01:45:02;4.78;;;2.95;;
20365;SDS011;10341;49.894;8.822;2023-08-06T01:50:21;3.77;;;2.83;;
20365;SDS011;10341;49.894;8.822;2023-08-06T01:55:41;3.03;;;2.33;;
20365;SDS011;10341;49.894;8.822;2023-08-06T02:01:01;4.18;;;2.72;;
20365;SDS011;10341;49.894;8.822;2023-08-06T02:11:40;3.03;;;2.40;;
20365;SDS011;10341;49.894;8.822;2023-08-06T02:16:59;4.38;;;2.40;;
20365;SDS011;10341;49.894;8.822;2023-08-06T02:22:19;2.30;;;2.10;;
20365;SDS011;10341;49.894;8.822;2023-08-06T02:27:38;3.30;;;2.53;;
20365;SDS011;10341;49.894;8.822;2023-08-06T02:32:58;4.88;;;2.80;;
20365;SDS011;10341;49.894;8.822;2023-08-06T02:38:17;2.38;;;2.17;;
20365;SDS011;10341;49.894;8.822;2023-08-06T02:43:37;2.20;;;2.00;;
20365;SDS011;10341;49.894;8.822;2023-08-06T02:48:57;3.17;;;2.40;;
20365;SDS011;10341;49.894;8.822;2023-08-06T02:54:16;2.50;;;2.17;;
20365;SDS011;10341;49.894;8.822;2023-08-06T02:59:36;3.92;;;2.28;;
20365;SDS011;10341;49.894;8.822;2023-08-06T03:05:00;3.08;;;2.30;;
20365;SDS011;10341;49.894;8.822;2023-08-06T03:10:25;4.65;;;2.38;;
20365;SDS011;10341;49.894;8.822;2023-08-06T03:15:53;2.58;;;2.10;;
20365;SDS011;10341;49.894;8.822;2023-08-06T03:21:14;3.03;;;2.20;;
20365;SDS011;10341;49.894;8.822;2023-08-06T03:26:34;2.38;;;2.03;;
20365;SDS011;10341;49.894;8.822;2023-08-06T03:31:54;3.15;;;2.17;;
20365;SDS011;10341;49.894;8.822;2023-08-06T03:37:14;4.23;;;2.07;;
20365;SDS011;10341;49.894;8.822;2023-08-06T03:42:33;2.55;;;1.77;;
20365;SDS011;10341;49.894;8.822;2023-08-06T03:47:53;2.30;;;1.80;;
20365;SDS011;10341;49.894;8.822;2023-08-06T03:53:12;1.95;;;1.70;;
20365;SDS011;10341;49.894;8.822;2023-08-06T03:58:32;3.63;;;1.98;;
20365;SDS011;10341;49.894;8.822;2023-08-06T04:03:51;2.70;;;1.83;;
20365;SDS011;10341;49.894;8.822;2023-08-06T04:09:11;3.47;;;2.00;;
20365;SDS011;10341;49.894;8.822;2023-08-06T04:14:32;3.72;;;1.80;;
20365;SDS011;10341;49.894;8.822;2023-08-06T04:19:52;1.85;;;1.70;;
20365;SDS011;10341;49.894;8.822;2023-08-06T04:25:13;4.38;;;2.00;;
20365;SDS011;10341;49.894;8.822;2023-08-06T04:30:33;2.92;;;2.17;;
20365;SDS011;10341;49.894;8.822;2023-08-06T04:35:54;3.53;;;1.95;;
20365;SDS011;10341;49.894;8.822;2023-08-06T04:41:18;2.58;;;1.90;;
20365;SDS011;10341;49.894;8.822;2023-08-06T04:46:38;2.80;;;2.03;;
20365;SDS011;10341;49.894;8.822;2023-08-06T04:51:57;2.45;;;2.00;;
20365;SDS011;10341;49.894;8.822;2023-08-06T04:57:17;2.22;;;1.70;;
20365;SDS011;10341;49.894;8.822;2023-08-06T05:02:36;2.78;;;1.80;;
20365;SDS011;10341;49.894;8.822;2023-08-06T05:07:57;3.72;;;1.67;;
20365;SDS011;10341;49.894;8.822;2023-08-06T05:13:16;3.17;;;1.67;;
20365;SDS011;10341;49.894;8.822;2023-08-06T05:18:35;1.83;;;1.13;;
20365;SDS011;10341;49.894;8.822;2023-08-06T05:23:56;2.08;;;1.27;;
20365;SDS011;10341;49.894;8.822;2023-08-06T05:29:16;2.33;;;1.13;;
20365;SDS011;10341;49.894;8.822;2023-08-06T05:34:35;1.67;;;0.90;;
20365;SDS011;10341;49.894;8.822;2023-08-06T05:39:55;1.10;;;0.83;;
20365;SDS011;10341;49.894;8.822;2023-08-06T05:45:14;0.77;;;0.70;;
20365;SDS011;10341;49.894;8.822;2023-08-06T05:55:54;0.98;;;0.82;;
20365;SDS011;10341;49.894;8.822;2023-08-06T06:01:13;2.07;;;1.40;;
20365;SDS011;10341;49.894;8.822;2023-08-06T06:06:33;1.50;;;1.15;;
20365;SDS011;10341;49.894;8.822;2023-08-06T06:11:52;2.70;;;0.95;;
20365;SDS011;10341;49.894;8.822;2023-08-06T06:17:11;0.90;;;0.80;;
20365;SDS011;10341;49.894;8.822;2023-08-06T06:22:31;1.35;;;0.90;;
20365;SDS011;10341;49.894;8.822;2023-08-06T06:27:50;0.80;;;0.80;;
20365;SDS011;10341;49.894;8.822;2023-08-06T06:33:09;1.08;;;0.82;;
20365;SDS011;10341;49.894;8.822;2023-08-06T06:38:29;2.13;;;0.90;;
20365;SDS011;10341;49.894;8.822;2023-08-06T06:43:48;0.93;;;0.70;;
20365;SDS011;10341;49.894;8.822;2023-08-06T06:49:08;1.43;;;0.93;;
20365;SDS011;10341;49.894;8.822;2023-08-06T06:54:27;0.75;;;0.75;;
20365;SDS011;10341;49.894;8.822;2023-08-06T06:59:47;1.03;;;0.80;;
20365;SDS011;10341;49.894;8.822;2023-08-06T07:05:06;1.13;;;0.73;;
20365;SDS011;10341;49.894;8.822;2023-08-06T07:10:26;0.73;;;0.68;;
20365;SDS011;10341;49.894;8.822;2023-08-06T07:15:45;1.05;;;0.80;;
20365;SDS011;10341;49.894;8.822;2023-08-06T07:21:04;0.90;;;0.80;;
20365;SDS011;10341;49.894;8.822;2023-08-06T07:26:23;0.90;;;0.90;;
20365;SDS011;10341;49.894;8.822;2023-08-06T07:31:42;1.08;;;0.98;;
20365;SDS011;10341;49.894;8.822;2023-08-06T07:37:01;1.20;;;1.10;;
20365;SDS011;10341;49.894;8.822;2023-08-06T07:42:21;1.20;;;1.05;;
20365;SDS011;10341;49.894;8.822;2023-08-06T07:47:41;0.93;;;0.77;;
20365;SDS011;10341;49.894;8.822;2023-08-06T07:53:01;1.13;;;0.68;;
20365;SDS011;10341;49.894;8.822;2023-08-06T07:58:21;0.50;;;0.50;;
20365;SDS011;10341;49.894;8.822;2023-08-06T08:03:42;0.75;;;0.70;;
20365;SDS011;10341;49.894;8.822;2023-08-06T08:09:01;0.50;;;0.50;;
20365;SDS011;10341;49.894;8.822;2023-08-06T08:14:21;1.13;;;0.70;;
20365;SDS011;10341;49.894;8.822;2023-08-06T08:19:41;1.40;;;0.60;;
20365;SDS011;10341;49.894;8.822;2023-08-06T08:25:00;0.75;;;0.75;;
20365;SDS011;10341;49.894;8.822;2023-08-06T08:30:19;1.13;;;0.50;;
20365;SDS011;10341;49.894;8.822;2023-08-06T08:35:38;0.50;;;0.50;;
20365;SDS011;10341;49.894;8.822;2023-08-06T08:40:59;0.70;;;0.50;;
20365;SDS011;10341;49.894;8.822;2023-08-06T08:46:19;0.88;;;0.40;;
20365;SDS011;10341;49.894;8.822;2023-08-06T08:51:38;0.22;;;0.22;;
20365;SDS011;10341;49.894;8.822;2023-08-06T08:56:58;0.70;;;0.70;;
20365;SDS011;10341;49.894;8.822;2023-08-06T09:02:18;1.45;;;1.05;;
20365;SDS011;10341;49.894;8.822;2023-08-06T09:07:43;0.80;;;0.80;;
20365;SDS011;10341;49.894;8.822;2023-08-06T09:13:07;0.57;;;0.55;;
20365;SDS011;10341;49.894;8.822;2023-08-06T09:23:48;0.50;;;0.50;;
20365;SDS011;10341;49.894;8.822;2023-08-06T09:29:07;0.50;;;0.50;;
20365;SDS011;10341;49.894;8.822;2023-08-06T09:34:27;0.63;;;0.22;;
20365;SDS011;10341;49.894;8.822;2023-08-06T09:39:47;0.30;;;0.30;;
20365;SDS011;10341;49.894;8.822;2023-08-06T09:45:07;0.52;;;0.20;;
20365;SDS011;10341;49.894;8.822;2023-08-06T09:55:50;0.20;;;0.20;;
20365;SDS011;10341;49.894;8.822;2023-08-06T10:01:10;0.45;;;0.32;;
20365;SDS011;10341;49.894;8.822;2023-08-06T10:06:33;0.17;;;0.17;;
20365;SDS011;10341;49.894;8.822;2023-08-06T10:11:55;0.40;;;0.40;;
20365;SDS011;10341;49.894;8.822;2023-08-06T10:17:16;0.13;;;0.13;;
20365;SDS011;10341;49.894;8.822;2023-08-06T10:22:38;0.30;;;0.20;;
20365;SDS011;10341;49.894;8.822;2023-08-06T10:28:09;0.28;;;0.20;;
20365;SDS011;10341;49.894;8.822;2023-08-06T10:33:39;0.35;;;0.30;;
20365;SDS011;10341;49.894;8.822;2023-08-06T10:39:05;0.22;;;0.17;;
20365;SDS011;10341;49.894;8.822;2023-08-06T10:44:24;0.17;;;0.17;;
20365;SDS011;10341;49.894;8.822;2023-08-06T10:49:44;0.30;;;0.30;;
20365;SDS011;10341;49.894;8.822;2023-08-06T10:55:04;0.30;;;0.30;;
20365;SDS011;10341;49.894;8.822;2023-08-06T11:00:24;0.43;;;0.22;;
20365;SDS011;10341;49.894;8.822;2023-08-06T11:05:49;0.53;;;0.40;;
20365;SDS011;10341;49.894;8.822;2023-08-06T11:16:32;0.30;;;0.15;;
20365;SDS011;10341;49.894;8.822;2023-08-06T11:21:51;0.65;;;0.65;;
20365;SDS011;10341;49.894;8.822;2023-08-06T11:27:15;0.10;;;0.10;;
20365;SDS011;10341;49.894;8.822;2023-08-06T11:32:44;0.10;;;0.10;;
20365;SDS011;10341;49.894;8.822;2023-08-06T11:38:05;0.50;;;0.50;;
20365;SDS011;10341;49.894;8.822;2023-08-06T11:43:25;1.15;;;0.20;;
20365;SDS011;10341;49.894;8.822;2023-08-06T11:48:51;0.88;;;0.55;;
20365;SDS011;10341;49.894;8.822;2023-08-06T11:54:11;0.30;;;0.20;;
20365;SDS011;10341;49.894;8.822;2023-08-06T11:59:30;0.00;;;0.00;;
20365;SDS011;10341;49.894;8.822;2023-08-06T12:04:57;0.00;;;0.00;;
20365;SDS011;10341;49.894;8.822;2023-08-06T12:15:41;0.57;;;0.30;;
20365;SDS011;10341;49.894;8.822;2023-08-06T12:21:00;1.55;;;0.20;;
20365;SDS011;10341;49.894;8.822;2023-08-06T12:26:20;0.22;;;0.22;;
20365;SDS011;10341;49.894;8.822;2023-08-06T12:31:39;0.20;;;0.20;;
20365;SDS011;10341;49.894;8.822;2023-08-06T12:36:59;0.20;;;0.20;;
20365;SDS011;10341;49.894;8.822;2023-08-06T12:42:19;0.40;;;0.38;;
20365;SDS011;10341;49.894;8.822;2023-08-06T12:47:38;0.55;;;0.50;;
20365;SDS011;10341;49.894;8.822;2023-08-06T12:52:57;0.20;;;0.20;;
20365;SDS011;10341;49.894;8.822;2023-08-06T12:58:17;0.40;;;0.30;;
20365;SDS011;10341;49.894;8.822;2023-08-06T13:03:36;1.17;;;0.37;;
20365;SDS011;10341;49.894;8.822;2023-08-06T13:08:59;0.70;;;0.43;;
20365;SDS011;10341;49.894;8.822;2023-08-06T13:14:18;1.60;;;0.40;;
20365;SDS011;10341;49.894;8.822;2023-08-06T13:19:37;1.35;;;0.40;;
20365;SDS011;10341;49.894;8.822;2023-08-06T13:24:57;0.52;;;0.40;;
20365;SDS011;10341;49.894;8.822;2023-08-06T13:30:17;1.15;;;0.50;;
20365;SDS011;10341;49.894;8.822;2023-08-06T13:35:38;1.17;;;0.60;;
20365;SDS011;10341;49.894;8.822;2023-08-06T13:40:58;0.80;;;0.50;;
20365;SDS011;10341;49.894;8.822;2023-08-06T13:46:18;0.60;;;0.60;;
20365;SDS011;10341;49.894;8.822;2023-08-06T13:51:38;0.68;;;0.40;;
20365;SDS011;10341;49.894;8.822;2023-08-06T13:56:58;0.97;;;0.50;;
20365;SDS011;10341;49.894;8.822;2023-08-06T14:02:17;2.30;;;0.40;;
20365;SDS011;10341;49.894;8.822;2023-08-06T14:07:36;0.63;;;0.50;;
20365;SDS011;10341;49.894;8.822;2023-08-06T14:12:56;0.90;;;0.47;;
20365;SDS011;10341;49.894;8.822;2023-08-06T14:18:15;0.85;;;0.60;;
20365;SDS011;10341;49.894;8.822;2023-08-06T14:28:54;0.30;;;0.30;;
20365;SDS011;10341;49.894;8.822;2023-08-06T14:34:13;0.28;;;0.28;;
20365;SDS011;10341;49.894;8.822;2023-08-06T14:39:32;0.30;;;0.30;;
20365;SDS011;10341;49.894;8.822;2023-08-06T14:44:51;1.48;;;0.70;;
20365;SDS011;10341;49.894;8.822;2023-08-06T14:50:11;1.33;;;0.77;;
20365;SDS011;10341;49.894;8.822;2023-08-06T14:55:30;0.57;;;0.45;;
20365;SDS011;10341;49.894;8.822;2023-08-06T15:00:51;0.40;;;0.32;;
20365;SDS011;10341;49.894;8.822;2023-08-06T15:06:10;0.50;;;0.50;;
20365;SDS011;10341;49.894;8.822;2023-08-06T15:11:29;0.63;;;0.30;;
20365;SDS011;10341;49.894;8.822;2023-08-06T15:16:49;0.30;;;0.30;;
20365;SDS011;10341;49.894;8.822;2023-08-06T15:22:10;1.00;;;0.57;;
20365;SDS011;10341;49.894;8.822;2023-08-06T15:27:31;0.63;;;0.30;;
20365;SDS011;10341;49.894;8.822;2023-08-06T15:32:51;1.08;;;0.60;;
20365;SDS011;10341;49.894;8.822;2023-08-06T15:38:11;0.90;;;0.55;;
20365;SDS011;10341;49.894;8.822;2023-08-06T15:43:30;0.60;;;0.60;;
20365;SDS011;10341;49.894;8.822;2023-08-06T15:48:50;0.80;;;0.35;;
20365;SDS011;10341;49.894;8.822;2023-08-06T15:54:10;0.57;;;0.30;;
20365;SDS011;10341;49.894;8.822;2023-08-06T15:59:30;0.70;;;0.20;;
20365;SDS011;10341;49.894;8.822;2023-08-06T16:04:50;0.20;;;0.20;;
20365;SDS011;10341;49.894;8.822;2023-08-06T16:10:09;0.45;;;0.30;;
20365;SDS011;10341;49.894;8.822;2023-08-06T16:15:29;0.40;;;0.32;;
20365;SDS011;10341;49.894;8.822;2023-08-06T16:20:49;0.20;;;0.20;;
20365;SDS011;10341;49.894;8.822;2023-08-06T16:26:11;0.40;;;0.30;;
20365;SDS011;10341;49.894;8.822;2023-08-06T16:31:31;0.97;;;0.43;;
20365;SDS011;10341;49.894;8.822;2023-08-06T16:36:50;2.15;;;0.22;;
20365;SDS011;10341;49.894;8.822;2023-08-06T16:42:10;0.50;;;0.20;;
20365;SDS011;10341;49.894;8.822;2023-08-06T16:47:30;1.10;;;0.25;;
20365;SDS011;10341;49.894;8.822;2023-08-06T16:52:50;0.50;;;0.30;;
20365;SDS011;10341;49.894;8.822;2023-08-06T16:58:09;0.20;;;0.20;;
20365;SDS011;10341;49.894;8.822;2023-08-06T17:03:28;0.88;;;0.25;;
20365;SDS011;10341;49.894;8.822;2023-08-06T17:08:47;0.60;;;0.40;;
20365;SDS011;10341;49.894;8.822;2023-08-06T17:14:07;0.35;;;0.35;;
20365;SDS011;10341;49.894;8.822;2023-08-06T17:19:26;0.50;;;0.50;;
20365;SDS011;10341;49.894;8.822;2023-08-06T17:24:45;0.40;;;0.32;;
20365;SDS011;10341;49.894;8.822;2023-08-06T17:30:05;1.55;;;0.50;;
20365;SDS011;10341;49.894;8.822;2023-08-06T17:35:25;0.47;;;0.38;;
20365;SDS011;10341;49.894;8.822;2023-08-06T17:40:54;2.20;;;0.40;;
20365;SDS011;10341;49.894;8.822;2023-08-06T17:46:14;0.73;;;0.50;;
20365;SDS011;10341;49.894;8.822;2023-08-06T17:51:34;0.40;;;0.40;;
20365;SDS011;10341;49.894;8.822;2023-08-06T17:56:53;1.33;;;0.37;;
20365;SDS011;10341;49.894;8.822;2023-08-06T18:02:13;0.33;;;0.33;;
20365;SDS011;10341;49.894;8.822;2023-08-06T18:07:32;1.30;;;0.45;;
20365;SDS011;10341;49.894;8.822;2023-08-06T18:12:52;1.80;;;0.95;;
20365;SDS011;10341;49.894;8.822;2023-08-06T18:18:12;0.53;;;0.40;;
20365;SDS011;10341;49.894;8.822;2023-08-06T18:23:31;0.40;;;0.40;;
20365;SDS011;10341;49.894;8.822;2023-08-06T18:28:50;0.35;;;0.32;;
20365;SDS011;10341;49.894;8.822;2023-08-06T18:34:09;1.05;;;0.40;;
20365;SDS011;10341;49.894;8.822;2023-08-06T18:39:27;0.40;;;0.40;;
20365;SDS011;10341;49.894;8.822;2023-08-06T18:44:47;0.57;;;0.40;;
20365;SDS011;10341;49.894;8.822;2023-08-06T18:50:07;0.85;;;0.40;;
20365;SDS011;10341;49.894;8.822;2023-08-06T18:55:26;0.52;;;0.40;;
20365;SDS011;10341;49.894;8.822;2023-08-06T19:00:46;0.43;;;0.30;;
20365;SDS011;10341;49.894;8.822;2023-08-06T19:06:05;1.23;;;0.50;;
20365;SDS011;10341;49.894;8.822;2023-08-06T19:16:45;0.28;;;0.28;;
20365;SDS011;10341;49.894;8.822;2023-08-06T19:22:05;0.47;;;0.47;;
20365;SDS011;10341;49.894;8.822;2023-08-06T19:27:24;2.43;;;0.43;;
20365;SDS011;10341;49.894;8.822;2023-08-06T19:32:43;0.60;;;0.25;;
20365;SDS011;10341;49.894;8.822;2023-08-06T19:38:03;1.08;;;0.32;;
20365;SDS011;10341;49.894;8.822;2023-08-06T19:43:22;0.20;;;0.20;;
20365;SDS011;10341;49.894;8.822;2023-08-06T19:48:41;0.35;;;0.28;;
20365;SDS011;10341;49.894;8.822;2023-08-06T19:54:00;0.10;;;0.10;;
20365;SDS011;10341;49.894;8.822;2023-08-06T19:59:19;0.28;;;0.28;;
20365;SDS011;10341;49.894;8.822;2023-08-06T20:04:39;0.57;;;0.50;;
20365;SDS011;10341;49.894;8.822;2023-08-06T20:09:58;1.13;;;0.40;;
20365;SDS011;10341;49.894;8.822;2023-08-06T20:15:17;2.58;;;0.45;;
20365;SDS011;10341;49.894;8.822;2023-08-06T20:20:37;0.43;;;0.40;;
20365;SDS011;10341;49.894;8.822;2023-08-06T20:31:16;0.82;;;0.30;;
20365;SDS011;10341;49.894;8.822;2023-08-06T20:36:36;1.13;;;0.60;;
20365;SDS011;10341;49.894;8.822;2023-08-06T20:41:55;1.63;;;0.35;;
20365;SDS011;10341;49.894;8.822;2023-08-06T20:47:14;1.88;;;0.47;;
20365;SDS011;10341;49.894;8.822;2023-08-06T20:52:34;1.40;;;0.50;;
20365;SDS011;10341;49.894;8.822;2023-08-06T20:57:54;1.42;;;0.38;;
20365;SDS011;10341;49.894;8.822;2023-08-06T21:03:13;0.68;;;0.40;;
20365;SDS011;10341;49.894;8.822;2023-08-06T21:08:33;3.20;;;0.70;;
20365;SDS011;10341;49.894;8.822;2023-08-06T21:13:53;0.75;;;0.35;;
20365;SDS011;10341;49.894;8.822;2023-08-06T21:19:13;0.45;;;0.38;;
20365;SDS011;10341;49.894;8.822;2023-08-06T21:24:32;0.40;;;0.32;;
20365;SDS011;10341;49.894;8.822;2023-08-06T21:29:51;0.52;;;0.25;;
20365;SDS011;10341;49.894;8.822;2023-08-06T21:35:11;2.83;;;0.63;;
20365;SDS011;10341;49.894;8.822;2023-08-06T21:40:32;0.35;;;0.22;;
20365;SDS011;10341;49.894;8.822;2023-08-06T21:45:52;0.20;;;0.20;;
20365;SDS011;10341;49.894;8.822;2023-08-06T21:51:15;1.02;;;0.30;;
20365;SDS011;10341;49.894;8.822;2023-08-06T21:56:36;3.83;;;0.35;;
20365;SDS011;10341;49.894;8.822;2023-08-06T22:01:55;0.20;;;0.20;;
20365;SDS011;10341;49.894;8.822;2023-08-06T22:07:14;0.40;;;0.30;;
20365;SDS011;10341;49.894;8.822;2023-08-06T22:12:33;0.40;;;0.20;;
20365;SDS011;10341;49.894;8.822;2023-08-06T22:17:52;0.30;;;0.22;;
20365;SDS011;10341;49.894;8.822;2023-08-06T22:23:12;2.13;;;0.40;;
20365;SDS011;10341;49.894;8.822;2023-08-06T22:28:31;1.10;;;0.45;;
20365;SDS011;10341;49.894;8.822;2023-08-06T22:33:51;1.80;;;0.60;;
20365;SDS011;10341;49.894;8.822;2023-08-06T22:39:11;1.15;;;0.50;;
20365;SDS011;10341;49.894;8.822;2023-08-06T22:44:30;1.77;;;0.40;;
20365;SDS011;10341;49.894;8.822;2023-08-06T22:49:49;0.30;;;0.30;;
20365;SDS011;10341;49.894;8.822;2023-08-06T22:55:09;2.03;;;0.50;;
20365;SDS011;10341;49.894;8.822;2023-08-06T23:00:28;0.75;;;0.50;;
20365;SDS011;10341;49.894;8.822;2023-08-06T23:05:47;0.40;;;0.40;;
20365;SDS011;10341;49.894;8.822;2023-08-06T23:11:07;0.47;;;0.40;;
20365;SDS011;10341;49.894;8.822;2023-08-06T23:16:27;0.98;;;0.45;;
20365;SDS011;10341;49.894;8.822;2023-08-06T23:21:46;0.88;;;0.57;;
20365;SDS011;10341;49.894;8.822;2023-08-06T23:27:06;3.08;;;0.60;;
20365;SDS011;10341;49.894;8.822;2023-08-06T23:32:27;0.77;;;0.65;;
20365;SDS011;10341;49.894;8.822;2023-08-06T23:37:47;1.30;;;0.73;;
20365;SDS011;10341;49.894;8.822;2023-08-06T23:43:06;1.33;;;0.73;;
20365;SDS011;10341;49.894;8.822;2023-08-06T23:48:27;1.50;;;0.70;;
20365;SDS011;10341;49.894;8.822;2023-08-06T23:53:47;2.70;;;0.80;;
20365;SDS011;10341;49.894;8.822;2023-08-06T23:59:08;1.05;;;0.68;;
